Time;durP1;ratioP1;P1;durP2;ratioP2;P2;SDS_P1;SDS_P2;PMS_P1;PMS_P2;Temp;Humidity;BMP_temperature;BMP_pressure;BME280_temperature;BME280_humidity;BME280_pressure;Samples;Min_cycle;Max_cycle;Signal;HPM_P1;HPM_P2
2021/05/26 00:00:58;;;;;;;6.50;3.08;;;12.00;99.90;;;;;;2062746;28;20474;-69
2021/05/26 00:01:59;;;;;;;7.15;2.58;;;12.00;99.90;;;;;;2063436;28;20034;-69
2021/05/26 00:03:00;;;;;;;7.50;2.70;;;12.00;99.90;;;;;;2070055;28;20034;-69
2021/05/26 00:04:00;;;;;;;5.35;2.40;;;12.00;99.90;;;;;;2079063;28;20096;-69
2021/05/26 00:05:01;;;;;;;7.82;2.97;;;12.00;99.90;;;;;;2063331;28;21002;-69
2021/05/26 00:06:02;;;;;;;4.85;2.50;;;12.00;99.90;;;;;;2063341;28;20076;-69
2021/05/26 00:07:02;;;;;;;4.88;2.13;;;12.00;99.90;;;;;;2063403;28;20152;-69
2021/05/26 00:08:03;;;;;;;6.25;2.60;;;12.00;99.90;;;;;;2063223;28;20022;-69
2021/05/26 00:09:04;;;;;;;5.65;2.85;;;12.00;99.90;;;;;;2063280;28;20030;-69
2021/05/26 00:10:06;;;;;;;5.63;2.60;;;12.00;99.90;;;;;;2063433;28;20037;-69
2021/05/26 00:11:09;;;;;;;7.22;2.45;;;12.00;99.90;;;;;;2063502;28;20033;-69
2021/05/26 00:12:12;;;;;;;6.70;2.30;;;12.00;99.90;;;;;;2062517;28;20533;-69
2021/05/26 00:13:12;;;;;;;7.50;2.78;;;12.00;99.90;;;;;;2062212;28;20042;-70
2021/05/26 00:14:13;;;;;;;3.70;2.00;;;12.00;99.90;;;;;;2062534;28;20069;-69
2021/05/26 00:15:14;;;;;;;5.38;2.25;;;11.90;99.90;;;;;;2063434;28;20101;-69
2021/05/26 00:16:15;;;;;;;6.85;2.22;;;11.90;99.90;;;;;;2063221;28;20025;-69
2021/05/26 00:17:16;;;;;;;4.88;2.33;;;11.90;99.90;;;;;;2063505;28;20477;-69
2021/05/26 00:18:17;;;;;;;5.10;2.60;;;11.80;99.90;;;;;;2063130;28;20386;-69
2021/05/26 00:19:18;;;;;;;5.15;2.30;;;11.80;99.90;;;;;;2063461;28;20014;-69
2021/05/26 00:20:19;;;;;;;4.32;2.30;;;11.80;99.90;;;;;;2063176;28;20459;-69
2021/05/26 00:21:20;;;;;;;4.60;2.30;;;11.80;99.90;;;;;;2063273;28;20110;-70
2021/05/26 00:22:20;;;;;;;3.63;2.40;;;11.80;99.90;;;;;;2062865;28;20030;-69
2021/05/26 00:23:21;;;;;;;8.73;3.03;;;11.70;99.90;;;;;;2063296;28;20026;-69
2021/05/26 00:24:22;;;;;;;7.05;2.25;;;11.80;99.90;;;;;;2063278;28;20482;-69
2021/05/26 00:25:23;;;;;;;6.35;2.35;;;11.70;99.90;;;;;;2062786;28;20775;-69
2021/05/26 00:26:23;;;;;;;4.88;2.22;;;11.70;99.90;;;;;;2062976;28;20532;-69
2021/05/26 00:27:24;;;;;;;5.03;2.28;;;11.70;99.90;;;;;;2062961;28;20038;-69
2021/05/26 00:28:24;;;;;;;5.55;2.60;;;11.70;99.90;;;;;;2063045;28;20470;-69
2021/05/26 00:29:25;;;;;;;6.47;2.55;;;11.70;99.90;;;;;;2063334;28;20034;-69
2021/05/26 00:30:29;;;;;;;6.78;2.22;;;11.70;99.90;;;;;;2063363;28;21053;-69
2021/05/26 00:31:30;;;;;;;3.90;1.88;;;11.70;99.90;;;;;;2063301;28;20026;-69
2021/05/26 00:32:31;;;;;;;4.50;2.13;;;11.70;99.90;;;;;;2062837;28;20037;-69
2021/05/26 00:33:31;;;;;;;7.78;2.30;;;11.70;99.90;;;;;;2063279;28;20037;-69
2021/05/26 00:34:32;;;;;;;3.55;2.33;;;11.60;99.90;;;;;;2062990;28;20449;-69
2021/05/26 00:35:32;;;;;;;5.32;2.05;;;11.70;99.90;;;;;;2063348;28;20029;-69
2021/05/26 00:36:33;;;;;;;6.40;2.05;;;11.60;99.90;;;;;;2063056;28;20022;-69
2021/05/26 00:37:34;;;;;;;4.03;2.45;;;11.60;99.90;;;;;;2063486;28;20632;-70
2021/05/26 00:38:34;;;;;;;3.25;1.90;;;11.60;99.90;;;;;;2062986;28;20097;-69
2021/05/26 00:39:35;;;;;;;5.88;2.22;;;11.60;99.90;;;;;;2062622;28;20080;-70
2021/05/26 00:40:36;;;;;;;4.30;1.75;;;11.60;99.90;;;;;;2063162;28;21651;-69
2021/05/26 00:41:36;;;;;;;4.57;2.10;;;11.60;99.90;;;;;;2063175;28;20358;-69
2021/05/26 00:42:38;;;;;;;6.78;1.75;;;11.60;99.90;;;;;;2062113;28;20054;-69
2021/05/26 00:43:38;;;;;;;2.08;1.45;;;11.60;99.90;;;;;;2062174;28;20085;-69
2021/05/26 00:44:39;;;;;;;5.15;1.92;;;11.60;99.90;;;;;;2070921;28;20562;-69
2021/05/26 00:45:40;;;;;;;3.53;1.90;;;11.60;99.90;;;;;;2062946;28;20109;-69
2021/05/26 00:46:42;;;;;;;5.85;1.85;;;11.60;99.90;;;;;;2063073;28;20037;-69
2021/05/26 00:47:48;;;;;;;5.00;2.00;;;11.60;99.90;;;;;;2063043;28;20455;-69
2021/05/26 00:48:49;;;;;;;9.10;2.33;;;11.50;99.90;;;;;;2060621;28;20117;-69
2021/05/26 00:49:50;;;;;;;6.85;1.85;;;11.50;99.90;;;;;;2063206;28;20458;-69
2021/05/26 00:50:50;;;;;;;4.45;2.00;;;11.50;99.90;;;;;;2063081;28;20034;-69
2021/05/26 00:51:51;;;;;;;4.47;2.13;;;11.50;99.90;;;;;;2062181;28;20473;-70
2021/05/26 00:52:52;;;;;;;9.35;2.15;;;11.50;99.90;;;;;;2062207;28;20034;-69
2021/05/26 00:53:53;;;;;;;8.50;2.10;;;11.50;99.90;;;;;;2062601;28;20909;-69
2021/05/26 00:54:53;;;;;;;4.75;1.80;;;11.50;99.90;;;;;;2063371;28;20043;-69
2021/05/26 00:55:54;;;;;;;4.90;1.80;;;11.50;99.90;;;;;;2062766;28;20014;-69
2021/05/26 00:56:55;;;;;;;4.43;1.60;;;11.40;99.90;;;;;;2062836;28;20498;-70
2021/05/26 00:57:57;;;;;;;3.03;1.75;;;11.40;99.90;;;;;;2062205;28;20029;-69
2021/05/26 00:58:58;;;;;;;4.63;1.73;;;11.40;99.90;;;;;;2062219;28;20073;-70
2021/05/26 00:59:58;;;;;;;3.78;1.65;;;11.40;99.90;;;;;;2064355;28;20026;-69
2021/05/26 01:00:59;;;;;;;2.40;1.50;;;11.40;99.90;;;;;;2071387;28;20029;-69
2021/05/26 01:02:00;;;;;;;3.05;1.60;;;11.40;99.90;;;;;;2061786;28;20058;-69
2021/05/26 01:03:00;;;;;;;3.75;1.88;;;11.40;99.90;;;;;;2062011;28;20034;-69
2021/05/26 01:04:01;;;;;;;4.20;1.70;;;11.40;99.90;;;;;;2063034;28;20031;-69
2021/05/26 01:05:04;;;;;;;4.15;1.50;;;11.30;99.90;;;;;;2063453;28;20030;-70
2021/05/26 01:06:06;;;;;;;4.90;1.83;;;11.40;99.90;;;;;;2062953;28;20096;-69
2021/05/26 01:07:06;;;;;;;4.30;1.80;;;11.30;99.90;;;;;;2063336;28;20026;-69
2021/05/26 01:08:07;;;;;;;5.20;2.03;;;11.30;99.90;;;;;;2062811;28;20040;-69
2021/05/26 01:09:11;;;;;;;4.57;1.70;;;11.30;99.90;;;;;;2062599;28;20030;-69
2021/05/26 01:10:14;;;;;;;5.53;1.90;;;11.30;99.90;;;;;;2060917;28;20034;-69
2021/05/26 01:11:15;;;;;;;4.40;1.73;;;11.30;99.90;;;;;;2063010;28;20030;-69
2021/05/26 01:12:15;;;;;;;4.30;1.63;;;11.30;99.90;;;;;;2062392;28;20023;-69
2021/05/26 01:13:17;;;;;;;3.25;2.03;;;11.30;99.90;;;;;;2062403;28;20382;-69
2021/05/26 01:14:18;;;;;;;6.75;2.03;;;11.30;99.90;;;;;;2062081;28;20018;-69
2021/05/26 01:15:19;;;;;;;4.45;2.17;;;11.30;99.90;;;;;;2062828;28;20030;-69
2021/05/26 01:16:20;;;;;;;2.63;1.40;;;11.30;99.90;;;;;;2062949;28;20019;-70
2021/05/26 01:17:21;;;;;;;3.33;2.00;;;11.30;99.90;;;;;;2058144;28;20086;-69
2021/05/26 01:18:29;;;;;;;3.03;1.83;;;11.30;99.90;;;;;;2061448;28;20454;-69
2021/05/26 01:19:30;;;;;;;4.57;1.83;;;11.20;99.90;;;;;;2058047;28;20025;-69
2021/05/26 01:20:31;;;;;;;3.80;2.10;;;11.20;99.90;;;;;;2063132;28;20484;-69
2021/05/26 01:21:31;;;;;;;4.93;1.65;;;11.20;99.90;;;;;;2063206;28;20058;-69
2021/05/26 01:22:32;;;;;;;5.20;2.05;;;11.20;99.90;;;;;;2062402;28;20102;-69
2021/05/26 01:23:33;;;;;;;6.05;2.00;;;11.30;99.90;;;;;;2062803;28;20034;-69
2021/05/26 01:24:35;;;;;;;5.03;2.08;;;11.20;99.90;;;;;;2074732;28;20029;-69
2021/05/26 01:25:35;;;;;;;3.78;2.10;;;11.20;99.90;;;;;;2074133;28;20194;-70
2021/05/26 01:26:36;;;;;;;4.40;2.00;;;11.20;99.90;;;;;;2063065;28;20073;-71
2021/05/26 01:27:36;;;;;;;2.20;1.58;;;11.20;99.90;;;;;;2063223;28;20041;-70
2021/05/26 01:28:38;;;;;;;4.95;2.20;;;11.20;99.90;;;;;;2063014;28;20394;-69
2021/05/26 01:29:38;;;;;;;3.65;1.85;;;11.20;99.90;;;;;;2062942;28;20030;-69
2021/05/26 01:30:39;;;;;;;4.93;1.90;;;11.20;99.90;;;;;;2061520;28;20133;-69
2021/05/26 01:31:40;;;;;;;4.60;2.28;;;11.20;99.90;;;;;;2060171;28;20035;-69
2021/05/26 01:32:46;;;;;;;6.22;2.40;;;11.20;99.90;;;;;;2060346;28;20034;-69
2021/05/26 01:33:46;;;;;;;6.63;2.08;;;11.20;99.90;;;;;;2064712;28;20779;-69
2021/05/26 01:34:47;;;;;;;5.03;2.40;;;11.20;99.90;;;;;;2064129;28;20364;-69
2021/05/26 01:35:48;;;;;;;5.72;1.90;;;11.20;99.90;;;;;;2064200;28;20026;-69
2021/05/26 01:36:49;;;;;;;7.80;2.45;;;11.20;99.90;;;;;;2064375;28;20439;-69
2021/05/26 01:37:49;;;;;;;5.72;2.35;;;11.20;99.90;;;;;;2064450;28;20031;-69
2021/05/26 01:38:50;;;;;;;4.45;2.33;;;11.20;99.90;;;;;;2064226;28;20042;-69
2021/05/26 01:39:51;;;;;;;5.53;2.85;;;11.20;99.90;;;;;;2064619;28;20548;-69
2021/05/26 01:40:56;;;;;;;5.13;2.05;;;11.30;99.90;;;;;;2064375;28;20033;-69
2021/05/26 01:41:57;;;;;;;7.22;3.03;;;11.30;99.90;;;;;;2064600;28;20471;-69
2021/05/26 01:42:57;;;;;;;5.97;2.42;;;11.20;99.90;;;;;;2063278;28;20382;-69
2021/05/26 01:43:58;;;;;;;5.45;2.60;;;11.20;99.90;;;;;;2063857;28;20031;-69
2021/05/26 01:45:00;;;;;;;6.78;2.50;;;11.20;99.90;;;;;;2059453;28;20398;-69
2021/05/26 01:46:01;;;;;;;7.50;2.40;;;11.20;99.90;;;;;;2062647;28;20026;-69
2021/05/26 01:47:02;;;;;;;7.32;2.75;;;11.30;99.90;;;;;;2064617;28;20030;-69
2021/05/26 01:48:03;;;;;;;4.53;2.28;;;11.30;99.90;;;;;;2063984;28;20022;-69
2021/05/26 01:49:04;;;;;;;5.63;2.35;;;11.30;99.90;;;;;;2063987;28;20887;-69
2021/05/26 01:50:19;;;;;;;8.07;3.05;;;11.30;99.90;;;;;;2064469;28;20065;-69
2021/05/26 01:51:19;;;;;;;5.60;2.22;;;11.30;99.90;;;;;;2064469;28;20053;-69
2021/05/26 01:52:20;;;;;;;5.63;2.78;;;11.30;99.90;;;;;;2063268;28;20486;-69
2021/05/26 01:53:20;;;;;;;8.45;3.22;;;11.30;99.90;;;;;;2063552;28;20102;-70
2021/05/26 01:54:21;;;;;;;7.13;2.83;;;11.30;99.90;;;;;;2064202;28;20378;-69
2021/05/26 01:55:22;;;;;;;10.80;2.97;;;11.30;99.90;;;;;;2064128;28;20395;-69
2021/05/26 01:56:25;;;;;;;7.30;3.10;;;11.30;99.90;;;;;;2063105;28;20026;-69
2021/05/26 01:57:25;;;;;;;9.00;3.28;;;11.30;99.90;;;;;;2063525;28;20041;-69
2021/05/26 01:58:26;;;;;;;8.98;3.00;;;11.30;99.90;;;;;;2063151;28;20086;-69
2021/05/26 01:59:26;;;;;;;6.00;2.85;;;11.30;99.90;;;;;;2071876;28;20032;-69
2021/05/26 02:00:28;;;;;;;9.25;2.85;;;11.30;99.90;;;;;;2077711;28;20026;-69
2021/05/26 02:01:29;;;;;;;6.28;2.75;;;11.40;99.90;;;;;;2065203;28;20042;-69
2021/05/26 02:02:29;;;;;;;9.90;3.78;;;11.40;99.90;;;;;;2065202;28;20018;-69
2021/05/26 02:03:30;;;;;;;9.77;3.10;;;11.40;99.90;;;;;;2065133;28;20061;-69
2021/05/26 02:04:30;;;;;;;8.40;2.75;;;11.40;99.90;;;;;;2065685;28;20026;-69
2021/05/26 02:05:31;;;;;;;7.72;2.97;;;11.40;99.90;;;;;;2065491;28;20037;-69
2021/05/26 02:06:32;;;;;;;10.15;3.35;;;11.40;99.90;;;;;;2064587;28;20035;-69
2021/05/26 02:07:32;;;;;;;7.30;3.05;;;11.40;99.90;;;;;;2065821;28;20053;-69
2021/05/26 02:08:33;;;;;;;8.82;3.15;;;11.40;99.90;;;;;;2065461;28;20478;-69
2021/05/26 02:09:35;;;;;;;9.52;3.40;;;11.40;99.90;;;;;;2065832;28;20027;-69
2021/05/26 02:13:14;;;;;;;8.80;3.10;;;11.40;99.90;;;;;;2066195;28;20023;-69
2021/05/26 02:14:14;;;;;;;9.55;3.40;;;11.40;99.90;;;;;;2065113;28;20042;-69
2021/05/26 02:15:15;;;;;;;8.93;3.50;;;11.40;99.90;;;;;;2065713;28;20785;-69
2021/05/26 02:16:15;;;;;;;9.40;3.13;;;11.40;99.90;;;;;;2065208;28;20760;-69
2021/05/26 02:17:16;;;;;;;6.68;3.10;;;11.40;99.90;;;;;;2065782;28;20023;-69
2021/05/26 02:18:17;;;;;;;7.40;3.08;;;11.40;99.90;;;;;;2065478;28;20027;-69
2021/05/26 02:19:17;;;;;;;9.25;3.50;;;11.40;99.90;;;;;;2065569;28;20125;-69
2021/05/26 02:20:18;;;;;;;9.57;3.25;;;11.40;99.90;;;;;;2062814;28;20489;-69
2021/05/26 02:21:19;;;;;;;9.05;3.60;;;11.40;99.90;;;;;;2061641;28;20056;-69
2021/05/26 02:22:19;;;;;;;8.70;3.00;;;11.40;99.90;;;;;;2064705;28;20029;-69
2021/05/26 02:23:20;;;;;;;8.40;3.13;;;11.40;99.90;;;;;;2065600;28;20030;-69
2021/05/26 02:24:20;;;;;;;7.38;3.03;;;11.40;99.90;;;;;;2065195;28;20030;-69
2021/05/26 02:25:21;;;;;;;8.50;3.10;;;11.40;99.90;;;;;;2065789;28;20030;-69
2021/05/26 02:26:22;;;;;;;14.23;3.58;;;11.40;99.90;;;;;;2065248;28;20370;-69
2021/05/26 02:27:22;;;;;;;6.93;3.05;;;11.40;99.90;;;;;;2065445;28;20027;-69
2021/05/26 02:28:23;;;;;;;9.52;3.65;;;11.40;99.90;;;;;;2065551;28;20687;-69
2021/05/26 02:29:23;;;;;;;10.30;3.25;;;11.30;99.90;;;;;;2065305;28;20030;-69
2021/05/26 02:30:24;;;;;;;7.55;3.08;;;11.40;99.90;;;;;;2065487;28;20658;-69
2021/05/26 02:31:25;;;;;;;11.52;3.50;;;11.30;99.90;;;;;;2065404;28;20133;-69
2021/05/26 02:32:26;;;;;;;12.82;3.22;;;11.30;99.90;;;;;;2064882;28;20117;-69
2021/05/26 02:33:26;;;;;;;7.93;4.13;;;11.30;99.90;;;;;;2065221;28;20581;-69
2021/05/26 02:34:27;;;;;;;10.50;4.05;;;11.30;99.90;;;;;;2064865;28;20481;-69
2021/05/26 02:35:29;;;;;;;8.35;3.58;;;11.30;99.90;;;;;;2069715;28;20065;-69
2021/05/26 02:36:29;;;;;;;8.15;4.10;;;11.30;99.90;;;;;;2070439;28;20489;-69
2021/05/26 02:37:30;;;;;;;10.52;4.30;;;11.30;99.90;;;;;;2067465;28;20439;-70
2021/05/26 02:38:31;;;;;;;13.07;3.90;;;11.30;99.90;;;;;;2065401;28;20022;-69
2021/05/26 02:39:31;;;;;;;12.18;3.75;;;11.40;99.90;;;;;;2065382;28;20074;-69
2021/05/26 02:40:35;;;;;;;11.20;3.78;;;11.40;99.90;;;;;;2065370;28;20097;-69
2021/05/26 02:41:36;;;;;;;11.63;4.28;;;11.40;99.90;;;;;;2065025;28;20034;-69
2021/05/26 02:42:37;;;;;;;12.77;3.85;;;11.40;99.90;;;;;;2064301;28;20062;-69
2021/05/26 02:43:38;;;;;;;10.68;4.03;;;11.40;99.90;;;;;;2064786;28;20030;-69
2021/05/26 02:44:39;;;;;;;11.00;3.65;;;11.40;99.90;;;;;;2065530;28;20065;-69
2021/05/26 02:45:39;;;;;;;12.55;4.05;;;11.40;99.90;;;;;;2065291;28;20038;-69
2021/05/26 02:46:40;;;;;;;10.88;4.22;;;11.50;99.90;;;;;;2065333;28;20477;-69
2021/05/26 02:47:41;;;;;;;11.07;3.58;;;11.50;99.90;;;;;;2063818;28;20038;-69
2021/05/26 02:48:41;;;;;;;6.88;3.30;;;11.50;99.90;;;;;;2059843;28;20113;-69
2021/05/26 02:49:42;;;;;;;14.00;4.00;;;11.50;99.90;;;;;;2065165;28;20022;-69
2021/05/26 02:50:42;;;;;;;10.05;3.92;;;11.50;99.90;;;;;;2065208;28;20088;-69
2021/05/26 02:51:43;;;;;;;9.27;3.47;;;11.50;99.90;;;;;;2064651;28;20084;-69
2021/05/26 02:52:45;;;;;;;10.18;4.20;;;11.50;99.90;;;;;;2064690;28;20029;-69
2021/05/26 02:53:45;;;;;;;12.77;4.07;;;11.50;99.90;;;;;;2064880;28;20529;-69
2021/05/26 02:54:46;;;;;;;8.98;3.67;;;11.50;99.90;;;;;;2065312;28;20485;-69
2021/05/26 02:55:46;;;;;;;12.35;5.00;;;11.50;99.90;;;;;;2062825;28;20467;-69
2021/05/26 02:56:47;;;;;;;13.80;4.82;;;11.50;99.90;;;;;;2064454;28;20056;-69
2021/05/26 02:57:48;;;;;;;12.73;4.57;;;11.50;99.90;;;;;;2065369;28;20026;-69
2021/05/26 02:58:48;;;;;;;12.52;4.50;;;11.50;99.90;;;;;;2065197;28;20364;-69
2021/05/26 02:59:49;;;;;;;15.68;5.20;;;11.50;99.90;;;;;;2065190;28;20621;-69
2021/05/26 03:00:49;;;;;;;9.40;4.65;;;11.50;99.90;;;;;;2065044;28;20102;-69
2021/05/26 03:01:50;;;;;;;9.98;4.32;;;11.50;99.90;;;;;;2064395;28;20393;-69
2021/05/26 03:02:51;;;;;;;12.88;4.32;;;11.50;99.90;;;;;;2062899;28;20109;-69
2021/05/26 03:03:52;;;;;;;13.25;4.93;;;11.50;99.90;;;;;;2063276;28;20062;-69
2021/05/26 03:04:52;;;;;;;15.10;4.88;;;11.60;99.90;;;;;;2064327;28;20029;-70
2021/05/26 03:05:54;;;;;;;19.75;5.60;;;11.50;99.90;;;;;;2064333;28;20042;-69
2021/05/26 03:06:54;;;;;;;13.07;5.45;;;11.60;99.90;;;;;;2064356;28;20018;-69
2021/05/26 03:07:55;;;;;;;14.05;5.00;;;11.50;99.90;;;;;;2064290;28;20486;-69
2021/05/26 03:08:56;;;;;;;13.02;4.60;;;11.60;99.90;;;;;;2064040;28;20077;-69
2021/05/26 03:09:56;;;;;;;12.80;4.72;;;11.60;99.90;;;;;;2062115;28;20038;-69
2021/05/26 03:10:58;;;;;;;12.10;5.22;;;11.60;99.90;;;;;;2063035;28;20474;-69
2021/05/26 03:11:58;;;;;;;13.52;5.72;;;11.60;99.90;;;;;;2063858;28;20129;-69
2021/05/26 03:12:59;;;;;;;12.70;5.07;;;11.60;99.90;;;;;;2063541;28;20109;-69
2021/05/26 03:13:59;;;;;;;12.68;4.88;;;11.60;99.90;;;;;;2063818;28;20018;-69
2021/05/26 03:15:00;;;;;;;10.18;4.85;;;11.60;99.90;;;;;;2063061;28;20514;-69
2021/05/26 03:16:02;;;;;;;10.82;4.50;;;11.60;99.90;;;;;;2063103;28;20022;-69
2021/05/26 03:17:03;;;;;;;13.75;5.07;;;11.60;99.90;;;;;;2063557;28;21119;-69
2021/05/26 03:18:06;;;;;;;11.82;4.85;;;11.60;99.90;;;;;;2063767;28;20084;-69
2021/05/26 03:19:06;;;;;;;17.00;4.63;;;11.60;99.90;;;;;;2063839;28;20015;-70
2021/05/26 03:20:11;;;;;;;9.98;4.70;;;11.60;99.90;;;;;;2063860;28;20053;-69
2021/05/26 03:21:11;;;;;;;12.95;4.40;;;11.60;99.90;;;;;;2063869;28;20014;-69
2021/05/26 03:22:12;;;;;;;11.38;4.28;;;11.60;99.90;;;;;;2063423;28;20042;-69
2021/05/26 03:23:13;;;;;;;9.43;4.15;;;11.60;99.90;;;;;;2063488;28;20026;-69
2021/05/26 03:24:14;;;;;;;9.75;4.68;;;11.60;99.90;;;;;;2063394;28;20022;-69
2021/05/26 03:25:16;;;;;;;9.68;3.92;;;11.60;99.90;;;;;;2063687;28;20034;-69
2021/05/26 03:26:16;;;;;;;13.80;4.28;;;11.60;99.90;;;;;;2063821;28;20069;-69
2021/05/26 03:27:19;;;;;;;9.43;4.55;;;11.60;99.90;;;;;;2063080;28;20571;-69
2021/05/26 03:28:20;;;;;;;10.75;4.60;;;11.60;99.90;;;;;;2055597;28;20039;-69
2021/05/26 03:29:21;;;;;;;12.13;4.43;;;11.60;99.90;;;;;;2055601;28;20106;-69
2021/05/26 03:30:22;;;;;;;10.55;4.43;;;11.70;99.90;;;;;;2055787;28;20475;-69
2021/05/26 03:31:22;;;;;;;10.65;4.00;;;11.70;99.90;;;;;;2055395;28;20557;-70
2021/05/26 03:32:23;;;;;;;18.10;4.65;;;11.70;99.90;;;;;;2054771;28;20030;-69
2021/05/26 03:33:23;;;;;;;8.55;3.95;;;11.70;99.90;;;;;;2055681;28;20026;-70
2021/05/26 03:34:24;;;;;;;11.68;4.13;;;11.70;99.90;;;;;;2055700;28;20027;-70
2021/05/26 03:35:26;;;;;;;10.07;4.38;;;11.60;99.90;;;;;;2055571;28;20431;-69
2021/05/26 03:36:27;;;;;;;12.15;4.47;;;11.70;99.90;;;;;;2055674;28;20479;-69
2021/05/26 03:37:28;;;;;;;10.98;4.20;;;11.70;99.90;;;;;;2059341;28;20423;-69
2021/05/26 03:38:28;;;;;;;13.82;4.78;;;11.70;99.90;;;;;;2055604;28;20033;-69
2021/05/26 03:39:29;;;;;;;12.93;4.40;;;11.70;99.90;;;;;;2062526;28;20042;-69
2021/05/26 03:40:29;;;;;;;11.88;4.32;;;11.70;99.90;;;;;;2063884;28;20066;-69
2021/05/26 03:41:30;;;;;;;13.30;4.63;;;11.70;99.90;;;;;;2063360;28;20029;-69
2021/05/26 03:42:30;;;;;;;7.95;3.85;;;11.70;99.90;;;;;;2062616;28;20030;-69
2021/05/26 03:43:31;;;;;;;8.18;3.75;;;11.70;99.90;;;;;;2062719;28;20030;-69
2021/05/26 03:44:32;;;;;;;8.85;3.75;;;11.70;99.90;;;;;;2063171;28;20109;-69
2021/05/26 03:45:33;;;;;;;8.00;3.80;;;11.70;99.90;;;;;;2063544;28;20034;-69
2021/05/26 03:46:35;;;;;;;12.75;4.63;;;11.70;99.90;;;;;;2063501;28;20026;-69
2021/05/26 03:47:36;;;;;;;11.45;3.80;;;11.80;99.90;;;;;;2063389;28;20018;-69
2021/05/26 03:48:37;;;;;;;16.60;4.53;;;11.80;99.90;;;;;;2063556;28;20045;-69
2021/05/26 03:49:37;;;;;;;10.93;4.38;;;11.80;99.90;;;;;;2063458;28;20050;-69
2021/05/26 03:50:39;;;;;;;11.93;4.65;;;11.80;99.90;;;;;;2062770;28;20106;-69
2021/05/26 03:51:39;;;;;;;8.60;3.97;;;11.80;99.90;;;;;;2061934;28;20068;-69
2021/05/26 03:52:46;;;;;;;15.02;5.28;;;11.80;99.90;;;;;;2062667;28;20030;-69
2021/05/26 03:53:47;;;;;;;12.90;4.35;;;11.80;99.90;;;;;;2063110;28;20046;-70
2021/05/26 03:54:47;;;;;;;13.95;5.05;;;11.80;99.90;;;;;;2063269;28;20085;-69
2021/05/26 03:55:48;;;;;;;9.55;4.20;;;11.80;99.90;;;;;;2063049;28;20027;-69
2021/05/26 03:56:48;;;;;;;11.73;5.20;;;11.80;99.90;;;;;;2063226;28;20077;-69
2021/05/26 03:57:49;;;;;;;13.73;4.63;;;11.80;99.90;;;;;;2063569;28;20044;-69
2021/05/26 03:58:50;;;;;;;13.15;4.32;;;11.80;99.90;;;;;;2063337;28;20069;-69
2021/05/26 03:59:50;;;;;;;9.05;3.80;;;11.80;99.90;;;;;;2063546;28;20026;-69
2021/05/26 04:00:51;;;;;;;13.57;4.93;;;11.80;99.90;;;;;;2063200;28;20120;-69
2021/05/26 04:01:52;;;;;;;12.32;5.10;;;11.80;99.90;;;;;;2063445;28;20026;-69
2021/05/26 04:02:52;;;;;;;11.77;4.45;;;11.90;99.90;;;;;;2062392;28;20023;-69
2021/05/26 04:03:53;;;;;;;12.60;4.45;;;11.80;99.90;;;;;;2063276;28;20030;-69
2021/05/26 04:04:53;;;;;;;9.35;4.22;;;11.90;99.90;;;;;;2059143;28;20027;-69
2021/05/26 04:05:55;;;;;;;8.90;4.97;;;11.90;99.90;;;;;;2063451;28;20019;-69
2021/05/26 04:06:55;;;;;;;16.02;5.90;;;11.90;99.90;;;;;;2063262;28;20034;-69
2021/05/26 04:07:56;;;;;;;14.52;4.80;;;11.80;99.90;;;;;;2063511;28;20022;-69
2021/05/26 04:08:56;;;;;;;12.18;4.60;;;11.90;99.90;;;;;;2063172;28;20093;-69
2021/05/26 04:09:57;;;;;;;11.55;4.25;;;11.90;99.90;;;;;;2063744;28;20022;-69
2021/05/26 04:10:57;;;;;;;10.20;4.55;;;11.90;99.90;;;;;;2063293;28;20091;-69
2021/05/26 04:11:58;;;;;;;12.35;5.10;;;11.90;99.90;;;;;;2063535;28;20081;-69
2021/05/26 04:12:58;;;;;;;14.63;4.68;;;11.80;99.90;;;;;;2062679;28;20025;-69
2021/05/26 04:13:59;;;;;;;11.73;4.35;;;11.90;99.90;;;;;;2063583;28;20045;-69
2021/05/26 04:15:00;;;;;;;12.55;4.75;;;11.80;99.90;;;;;;2063217;28;20363;-69
2021/05/26 04:16:00;;;;;;;11.27;5.13;;;11.80;99.90;;;;;;2070849;28;20084;-69
2021/05/26 04:17:01;;;;;;;11.25;4.80;;;11.90;99.90;;;;;;2070685;28;20020;-69
2021/05/26 04:18:06;;;;;;;9.70;3.72;;;11.80;99.90;;;;;;2062772;28;20058;-69
2021/05/26 04:19:07;;;;;;;10.48;4.35;;;11.90;99.90;;;;;;2063254;28;20021;-70
2021/05/26 04:20:09;;;;;;;8.80;3.85;;;11.90;99.90;;;;;;2063662;28;20504;-69
2021/05/26 04:21:09;;;;;;;10.73;4.97;;;11.80;99.90;;;;;;2063313;28;20049;-69
2021/05/26 04:22:10;;;;;;;9.90;4.35;;;11.90;99.90;;;;;;2062861;28;20446;-69
2021/05/26 04:23:11;;;;;;;13.63;4.55;;;11.80;99.90;;;;;;2063052;28;20815;-69
2021/05/26 04:24:11;;;;;;;17.88;4.03;;;11.90;99.90;;;;;;2063340;28;20019;-69
2021/05/26 04:25:12;;;;;;;7.78;4.35;;;11.80;99.90;;;;;;2063324;28;20377;-69
2021/05/26 04:26:12;;;;;;;8.90;3.90;;;11.80;99.90;;;;;;2063444;28;20029;-69
2021/05/26 04:27:13;;;;;;;7.82;3.80;;;11.80;99.90;;;;;;2063305;28;20038;-69
2021/05/26 04:28:14;;;;;;;9.40;3.97;;;11.90;99.90;;;;;;2063332;28;20532;-69
2021/05/26 04:29:15;;;;;;;11.77;4.00;;;11.90;99.90;;;;;;2070713;28;20022;-69
2021/05/26 04:30:16;;;;;;;11.45;4.60;;;11.90;99.90;;;;;;2070708;28;20033;-69
2021/05/26 04:31:17;;;;;;;13.15;4.43;;;11.90;99.90;;;;;;2062987;28;20113;-69
2021/05/26 04:32:17;;;;;;;15.20;4.47;;;11.90;99.90;;;;;;2061949;28;20037;-69
2021/05/26 04:33:18;;;;;;;11.10;3.85;;;11.90;99.90;;;;;;2063222;28;20037;-69
2021/05/26 04:34:18;;;;;;;15.10;4.18;;;11.90;99.90;;;;;;2062706;28;20080;-69
2021/05/26 04:35:19;;;;;;;11.55;3.85;;;11.90;99.90;;;;;;2063389;28;20030;-69
2021/05/26 04:36:19;;;;;;;11.10;3.88;;;11.90;99.90;;;;;;2063057;28;20032;-69
2021/05/26 04:37:20;;;;;;;11.65;4.32;;;12.00;99.90;;;;;;2063394;28;20029;-69
2021/05/26 04:38:21;;;;;;;8.15;3.85;;;12.00;99.90;;;;;;2063494;28;20036;-69
2021/05/26 04:39:21;;;;;;;14.00;3.83;;;12.00;99.90;;;;;;2063296;28;20030;-69
2021/05/26 04:40:22;;;;;;;12.68;3.83;;;12.00;99.90;;;;;;2062533;28;20088;-69
2021/05/26 04:41:22;;;;;;;12.40;3.92;;;12.00;99.90;;;;;;2063428;28;20023;-69
2021/05/26 04:42:23;;;;;;;11.63;4.35;;;12.00;99.90;;;;;;2062485;28;20038;-69
2021/05/26 04:43:23;;;;;;;9.02;3.72;;;12.00;99.90;;;;;;2063490;28;20027;-69
2021/05/26 04:44:24;;;;;;;8.98;3.97;;;12.00;99.90;;;;;;2062926;28;20482;-69
2021/05/26 04:45:25;;;;;;;9.23;3.50;;;12.00;99.90;;;;;;2062812;28;20038;-70
2021/05/26 04:46:25;;;;;;;13.35;4.05;;;12.00;99.90;;;;;;2063342;28;20108;-69
2021/05/26 04:47:26;;;;;;;8.38;4.20;;;12.00;99.90;;;;;;2063657;28;20030;-69
2021/05/26 04:48:29;;;;;;;12.20;3.67;;;12.00;99.90;;;;;;2063008;28;20470;-69
2021/05/26 04:49:30;;;;;;;11.55;3.88;;;12.00;99.90;;;;;;2063289;28;20038;-69
2021/05/26 04:50:30;;;;;;;9.00;3.60;;;12.00;99.90;;;;;;2063042;28;20646;-69
2021/05/26 04:51:31;;;;;;;9.10;3.60;;;12.10;99.90;;;;;;2063458;28;20034;-69
2021/05/26 04:52:31;;;;;;;8.45;3.40;;;12.00;99.90;;;;;;2062552;28;20031;-69
2021/05/26 04:53:32;;;;;;;7.95;3.25;;;12.10;99.90;;;;;;2063369;28;20026;-69
2021/05/26 04:54:33;;;;;;;13.10;3.88;;;12.10;99.90;;;;;;2063329;28;20027;-69
2021/05/26 04:55:34;;;;;;;10.55;3.35;;;12.10;99.90;;;;;;2062690;28;20514;-69
2021/05/26 04:56:35;;;;;;;9.15;3.70;;;12.10;99.90;;;;;;2062848;28;20034;-69
2021/05/26 04:57:35;;;;;;;9.68;3.25;;;12.10;99.90;;;;;;2063562;28;20121;-69
2021/05/26 04:58:36;;;;;;;9.20;3.45;;;12.10;99.90;;;;;;2062929;28;20054;-69
2021/05/26 04:59:36;;;;;;;7.70;2.90;;;12.10;99.90;;;;;;2063445;28;20093;-70
2021/05/26 05:00:37;;;;;;;7.53;3.08;;;12.10;99.90;;;;;;2063038;28;20027;-69
2021/05/26 05:01:38;;;;;;;10.65;3.10;;;12.10;99.90;;;;;;2063263;28;20034;-69
2021/05/26 05:02:39;;;;;;;8.77;3.47;;;12.10;99.90;;;;;;2062636;28;20049;-69
2021/05/26 05:03:39;;;;;;;10.23;3.17;;;12.10;99.90;;;;;;2063112;28;20512;-69
2021/05/26 05:04:40;;;;;;;9.73;2.85;;;12.10;99.90;;;;;;2062935;28;20050;-69
2021/05/26 05:05:40;;;;;;;9.38;3.25;;;12.10;99.90;;;;;;2063400;28;20085;-69
2021/05/26 05:06:41;;;;;;;7.82;3.00;;;12.10;99.90;;;;;;2064073;28;20037;-69
2021/05/26 05:07:42;;;;;;;7.30;2.85;;;12.10;99.90;;;;;;2064711;28;20026;-69
2021/05/26 05:08:42;;;;;;;7.47;3.00;;;12.10;99.90;;;;;;2063493;28;20023;-69
2021/05/26 05:09:43;;;;;;;10.25;2.58;;;12.10;99.90;;;;;;2063739;28;20034;-69
2021/05/26 05:10:43;;;;;;;5.63;2.97;;;12.20;99.90;;;;;;2064738;28;20038;-69
2021/05/26 05:11:45;;;;;;;6.35;3.05;;;12.20;99.90;;;;;;2064501;28;20041;-69
2021/05/26 05:12:46;;;;;;;6.72;2.78;;;12.20;99.90;;;;;;2064313;28;20029;-69
2021/05/26 05:13:47;;;;;;;8.25;2.58;;;12.20;99.90;;;;;;2064969;28;20065;-69
2021/05/26 05:14:47;;;;;;;8.43;2.88;;;12.20;99.90;;;;;;2063658;28;20065;-69
2021/05/26 05:15:48;;;;;;;6.47;2.60;;;12.20;99.90;;;;;;2064021;28;20037;-69
2021/05/26 05:16:48;;;;;;;8.93;2.70;;;12.20;99.90;;;;;;2059859;28;20057;-69
2021/05/26 05:17:50;;;;;;;8.32;2.97;;;12.20;99.90;;;;;;2058939;28;20030;-69
2021/05/26 05:18:50;;;;;;;9.13;3.08;;;12.20;99.90;;;;;;2064810;28;20061;-69